Time;durP1;ratioP1;P1;durP2;ratioP2;P2;SDS_P1;SDS_P2;PMS_P1;PMS_P2;Temp;Humidity;BMP_temperature;BMP_pressure;BME280_temperature;BME280_humidity;BME280_pressure;Samples;Min_cycle;Max_cycle;Signal;HPM_P1;HPM_P2
2023/08/16 00:01:20;;;;;;;7.90;5.93;;;21.70;1.00;;;;;;6339915;22;20157;-42
2023/08/16 00:03:46;;;;;;;6.00;5.50;;;21.60;1.00;;;;;;6339653;22;20465;-39
2023/08/16 00:06:12;;;;;;;6.60;6.00;;;21.50;1.00;;;;;;6337721;22;20423;-38
2023/08/16 00:08:39;;;;;;;6.57;5.13;;;21.40;1.00;;;;;;6338684;22;20546;-38
2023/08/16 00:11:04;;;;;;;6.07;5.30;;;21.30;1.00;;;;;;6338868;22;20393;-39
2023/08/16 00:13:31;;;;;;;6.60;6.00;;;21.30;3.70;;;;;;6339846;22;20702;-38
2023/08/16 00:15:57;;;;;;;6.83;5.60;;;21.30;33.20;;;;;;6339966;22;20159;-39
2023/08/16 00:18:22;;;;;;;6.80;6.10;;;21.30;99.30;;;;;;6339292;22;20361;-40
2023/08/16 00:20:48;;;;;;;6.63;6.07;;;21.30;99.90;;;;;;6338941;22;20182;-43
2023/08/16 00:23:14;;;;;;;6.40;5.80;;;21.30;99.90;;;;;;6338183;22;20179;-38
2023/08/16 00:25:40;;;;;;;5.67;5.17;;;21.30;99.90;;;;;;6338477;22;20150;-37
2023/08/16 00:28:05;;;;;;;5.27;4.77;;;21.30;99.90;;;;;;6339727;22;20179;-39
2023/08/16 00:30:31;;;;;;;7.63;5.70;;;21.20;99.90;;;;;;6340067;22;20636;-41
2023/08/16 00:32:57;;;;;;;6.83;6.13;;;21.20;99.90;;;;;;6339376;22;20511;-39
2023/08/16 00:35:23;;;;;;;6.37;5.83;;;21.20;99.90;;;;;;6340662;22;20381;-39
2023/08/16 00:37:48;;;;;;;10.07;6.03;;;21.10;99.90;;;;;;6339798;22;20162;-39
2023/08/16 00:40:15;;;;;;;7.10;5.90;;;21.00;99.90;;;;;;6337695;22;20191;-41
2023/08/16 00:42:41;;;;;;;7.63;6.93;;;21.10;99.90;;;;;;6338663;22;20131;-38
2023/08/16 00:45:07;;;;;;;5.63;5.13;;;21.10;99.90;;;;;;6338223;22;20775;-39
2023/08/16 00:47:34;;;;;;;5.60;5.10;;;21.20;99.90;;;;;;6338291;22;20417;-39
2023/08/16 00:49:59;;;;;;;5.53;5.13;;;21.30;99.90;;;;;;6337793;22;20811;-39
2023/08/16 00:52:25;;;;;;;5.43;5.03;;;21.30;99.90;;;;;;6336316;22;20373;-39
2023/08/16 00:54:51;;;;;;;5.70;5.23;;;21.40;99.90;;;;;;6337799;22;20208;-38
2023/08/16 00:57:17;;;;;;;6.00;5.50;;;21.40;99.90;;;;;;6338250;22;20140;-38
2023/08/16 00:59:43;;;;;;;7.37;5.70;;;21.50;99.90;;;;;;6339918;22;20237;-39
2023/08/16 01:02:09;;;;;;;5.50;5.00;;;21.50;99.90;;;;;;6338429;22;20151;-37
2023/08/16 01:04:35;;;;;;;6.70;5.23;;;21.50;99.90;;;;;;6338142;22;20427;-38
2023/08/16 01:07:00;;;;;;;5.67;5.13;;;21.50;99.90;;;;;;6340032;22;20525;-39
2023/08/16 01:09:26;;;;;;;6.10;5.27;;;21.50;99.90;;;;;;6338904;22;20124;-41
2023/08/16 01:12:11;;;;;;;5.43;4.97;;;21.50;99.90;;;;;;6340602;22;20419;-40
2023/08/16 01:14:45;;;;;;;5.23;4.80;;;21.50;99.90;;;;;;6340999;22;20260;-39
2023/08/16 01:17:12;;;;;;;6.07;5.40;;;21.50;99.90;;;;;;6341719;22;20377;-39
2023/08/16 01:19:38;;;;;;;5.50;5.00;;;21.50;99.90;;;;;;6338442;22;20491;-39
2023/08/16 01:22:16;;;;;;;5.70;5.20;;;21.50;99.90;;;;;;6340316;22;20391;-38
2023/08/16 01:24:59;;;;;;;5.23;4.77;;;21.50;99.90;;;;;;6340470;22;20342;-37
2023/08/16 01:27:25;;;;;;;5.90;5.30;;;21.50;99.90;;;;;;6339554;22;20405;-42
2023/08/16 01:29:53;;;;;;;5.77;5.27;;;21.40;99.90;;;;;;6336313;22;20380;-38
2023/08/16 01:32:22;;;;;;;5.60;5.20;;;21.40;99.90;;;;;;6339556;22;20702;-37
2023/08/16 01:34:48;;;;;;;6.80;6.10;;;21.40;99.90;;;;;;6339035;22;20385;-41
2023/08/16 01:37:13;;;;;;;6.10;5.60;;;21.40;99.90;;;;;;6339673;22;20546;-40
2023/08/16 01:39:39;;;;;;;6.97;6.37;;;21.30;99.90;;;;;;6338861;22;20138;-38
2023/08/16 01:42:06;;;;;;;6.00;5.50;;;21.30;99.90;;;;;;6310918;22;20546;-40
2023/08/16 01:44:33;;;;;;;6.30;5.80;;;21.20;99.90;;;;;;6336404;22;20224;-41
2023/08/16 01:46:59;;;;;;;5.80;5.30;;;21.20;99.90;;;;;;6337910;22;20557;-40
2023/08/16 01:49:25;;;;;;;6.80;6.20;;;21.10;99.90;;;;;;6339992;22;20377;-38
2023/08/16 01:51:51;;;;;;;6.70;6.10;;;21.10;99.90;;;;;;6340285;22;20388;-38
2023/08/16 01:54:17;;;;;;;5.47;5.07;;;21.10;99.90;;;;;;6338719;22;20357;-39
2023/08/16 01:56:43;;;;;;;6.70;6.20;;;21.10;99.90;;;;;;6341869;22;20409;-42
2023/08/16 01:59:08;;;;;;;5.40;5.00;;;21.20;99.90;;;;;;6342534;22;20190;-39
2023/08/16 02:01:34;;;;;;;6.40;5.80;;;21.20;99.90;;;;;;6341450;22;20675;-39
2023/08/16 02:03:59;;;;;;;6.47;5.70;;;21.20;99.90;;;;;;6340133;22;20439;-39
2023/08/16 02:06:25;;;;;;;6.27;5.50;;;21.20;99.90;;;;;;6340936;22;20384;-38
2023/08/16 02:08:52;;;;;;;5.93;5.40;;;21.20;99.90;;;;;;6341290;22;20143;-40
2023/08/16 02:11:17;;;;;;;6.20;5.63;;;21.20;99.90;;;;;;6342451;22;20198;-41
2023/08/16 02:13:43;;;;;;;6.20;5.70;;;21.20;99.90;;;;;;6341079;22;20421;-41
2023/08/16 02:16:09;;;;;;;6.60;5.93;;;21.20;99.90;;;;;;6338236;22;20375;-39
2023/08/16 02:18:34;;;;;;;5.60;5.20;;;21.20;99.90;;;;;;6337828;22;20127;-40
2023/08/16 02:21:00;;;;;;;6.13;5.17;;;21.20;99.90;;;;;;6339639;22;20124;-38
2023/08/16 02:23:25;;;;;;;5.90;5.30;;;21.20;99.90;;;;;;6339290;22;20157;-37
2023/08/16 02:25:51;;;;;;;5.43;5.00;;;21.20;99.90;;;;;;6338024;22;20151;-42
2023/08/16 02:28:17;;;;;;;5.70;5.20;;;21.20;99.90;;;;;;6339482;22;20202;-38
2023/08/16 02:30:42;;;;;;;4.73;4.33;;;21.20;99.90;;;;;;6338469;22;20127;-38
2023/08/16 02:33:08;;;;;;;5.40;5.00;;;21.20;99.90;;;;;;6338728;22;20138;-40
2023/08/16 02:35:34;;;;;;;5.73;5.23;;;21.20;99.90;;;;;;6338917;22;20147;-41
2023/08/16 02:37:59;;;;;;;6.57;6.07;;;21.10;99.90;;;;;;6342088;22;20743;-41
2023/08/16 02:40:25;;;;;;;6.60;6.10;;;21.00;99.90;;;;;;6340496;22;20427;-39
2023/08/16 02:42:51;;;;;;;6.87;6.27;;;20.90;99.90;;;;;;6341499;22;20151;-38
2023/08/16 02:45:18;;;;;;;7.13;6.47;;;20.90;99.90;;;;;;6341744;22;20127;-38
2023/08/16 02:47:44;;;;;;;7.60;6.27;;;20.90;99.90;;;;;;6341538;22;20817;-38
2023/08/16 02:50:10;;;;;;;6.80;6.20;;;20.90;99.90;;;;;;6342069;22;20385;-39
2023/08/16 02:52:35;;;;;;;6.30;5.80;;;20.90;99.90;;;;;;6341297;22;20439;-40
2023/08/16 02:55:01;;;;;;;5.87;5.37;;;20.90;99.90;;;;;;6340380;22;20430;-41
2023/08/16 02:57:27;;;;;;;5.63;5.20;;;20.90;99.90;;;;;;6340917;22;20138;-39
2023/08/16 02:59:53;;;;;;;6.70;6.20;;;20.90;99.90;;;;;;6338426;22;20132;-38
2023/08/16 03:02:18;;;;;;;6.40;5.90;;;20.90;99.90;;;;;;6340659;22;20151;-39
2023/08/16 03:04:44;;;;;;;5.53;5.13;;;20.80;99.90;;;;;;6337465;22;20385;-38
2023/08/16 03:07:11;;;;;;;6.03;5.50;;;20.80;99.90;;;;;;6335458;22;20199;-40
2023/08/16 03:09:37;;;;;;;6.17;5.67;;;20.80;99.90;;;;;;6337939;22;20537;-39
2023/08/16 03:12:04;;;;;;;6.80;6.20;;;20.80;99.90;;;;;;6337982;22;20373;-39
2023/08/16 03:14:30;;;;;;;6.30;5.70;;;20.70;99.90;;;;;;6337159;22;20435;-38
2023/08/16 03:16:59;;;;;;;6.00;5.50;;;20.70;99.90;;;;;;6338160;22;20476;-40
2023/08/16 03:19:25;;;;;;;6.60;6.00;;;20.70;99.90;;;;;;6337177;22;20155;-40
2023/08/16 03:21:51;;;;;;;5.93;5.50;;;20.70;99.90;;;;;;6339429;22;20386;-38
2023/08/16 03:24:17;;;;;;;5.73;5.23;;;20.70;99.90;;;;;;6337886;22;20353;-40
2023/08/16 03:26:43;;;;;;;5.63;5.23;;;20.70;99.90;;;;;;6336852;22;20421;-38
2023/08/16 03:29:08;;;;;;;6.77;6.17;;;20.70;99.90;;;;;;6337936;22;20169;-40
2023/08/16 03:31:34;;;;;;;5.97;5.43;;;20.70;99.90;;;;;;6338833;22;20445;-40
2023/08/16 03:34:00;;;;;;;6.90;6.30;;;20.70;99.90;;;;;;6339062;22;20415;-40
2023/08/16 03:36:25;;;;;;;6.63;6.13;;;20.70;99.90;;;;;;6337676;22;20454;-39
2023/08/16 03:38:51;;;;;;;7.00;6.40;;;20.70;99.90;;;;;;6338823;22;20411;-40
2023/08/16 03:41:17;;;;;;;5.80;5.40;;;20.70;99.90;;;;;;6335534;22;20178;-40
2023/08/16 03:43:42;;;;;;;6.77;6.17;;;20.70;99.90;;;;;;6337205;22;20151;-41
2023/08/16 03:46:08;;;;;;;6.60;6.10;;;20.70;99.90;;;;;;6336775;22;20379;-39
2023/08/16 03:48:34;;;;;;;6.10;5.60;;;20.70;99.90;;;;;;6336914;22;20158;-39
2023/08/16 03:50:59;;;;;;;7.47;6.73;;;20.70;99.90;;;;;;6335891;22;20538;-41
2023/08/16 03:53:25;;;;;;;6.27;5.67;;;20.60;99.90;;;;;;6335430;22;20412;-38
2023/08/16 03:55:57;;;;;;;6.57;6.07;;;20.50;99.90;;;;;;6335180;22;20148;-39
2023/08/16 03:58:24;;;;;;;6.67;6.07;;;20.50;99.90;;;;;;6338068;22;20134;-40
2023/08/16 04:00:53;;;;;;;6.73;6.13;;;20.40;99.90;;;;;;6338005;22;20392;-40
2023/08/16 04:03:20;;;;;;;7.30;6.47;;;20.30;99.90;;;;;;6339561;22;20476;-41
2023/08/16 04:05:45;;;;;;;6.50;5.93;;;20.30;99.90;;;;;;6340138;22;20388;-43
2023/08/16 04:08:11;;;;;;;6.53;6.00;;;20.30;99.90;;;;;;6339396;22;20464;-40
2023/08/16 04:10:37;;;;;;;5.90;5.40;;;20.30;99.90;;;;;;6337676;22;20147;-39
2023/08/16 04:13:03;;;;;;;5.80;5.30;;;20.40;99.90;;;;;;6338740;22;20131;-44
2023/08/16 04:15:29;;;;;;;6.50;5.90;;;20.40;99.90;;;;;;6338913;22;20660;-43
2023/08/16 04:17:55;;;;;;;5.47;4.97;;;20.40;99.90;;;;;;6338907;22;20413;-43
2023/08/16 04:20:21;;;;;;;6.00;5.40;;;20.40;99.90;;;;;;6337660;22;20217;-42
2023/08/16 04:22:47;;;;;;;5.77;5.30;;;20.50;99.90;;;;;;6336426;22;20539;-41
2023/08/16 04:25:12;;;;;;;5.60;5.10;;;20.50;99.90;;;;;;6336028;22;20362;-38
2023/08/16 04:27:38;;;;;;;6.03;5.53;;;20.60;99.90;;;;;;6335824;22;20241;-42
2023/08/16 04:30:05;;;;;;;5.50;5.10;;;20.60;99.90;;;;;;6335169;22;20258;-43
2023/08/16 04:32:31;;;;;;;5.67;5.17;;;20.70;99.90;;;;;;6335307;22;20216;-40
2023/08/16 04:34:57;;;;;;;5.60;5.10;;;20.70;99.90;;;;;;6333693;22;20726;-40
2023/08/16 04:37:22;;;;;;;5.23;4.80;;;20.80;99.90;;;;;;6335257;22;20211;-43
2023/08/16 04:39:48;;;;;;;5.87;5.37;;;20.80;99.90;;;;;;6336762;22;20158;-40
2023/08/16 04:42:14;;;;;;;4.93;4.40;;;20.80;99.90;;;;;;6334224;22;20155;-43
2023/08/16 04:44:40;;;;;;;5.20;4.80;;;20.80;99.90;;;;;;6337170;22;20162;-40
2023/08/16 04:47:06;;;;;;;7.03;5.57;;;20.80;99.90;;;;;;6337391;22;20800;-50
2023/08/16 04:49:32;;;;;;;4.97;4.57;;;20.80;99.90;;;;;;6336508;22;20392;-43
2023/08/16 04:51:58;;;;;;;5.73;5.23;;;20.90;99.90;;;;;;6337841;22;20131;-42
2023/08/16 04:54:23;;;;;;;7.53;4.83;;;20.90;99.90;;;;;;6336922;22;20200;-39
2023/08/16 04:56:49;;;;;;;5.20;4.80;;;21.00;99.90;;;;;;6340188;22;20385;-44
2023/08/16 04:59:16;;;;;;;5.10;4.70;;;21.00;99.90;;;;;;6339727;22;20147;-40
2023/08/16 05:01:42;;;;;;;4.50;4.10;;;21.00;89.70;;;;;;6338909;22;20357;-40
2023/08/16 05:04:09;;;;;;;4.90;4.50;;;21.10;86.20;;;;;;6337808;22;20362;-41
2023/08/16 05:06:35;;;;;;;4.80;4.40;;;21.10;51.00;;;;;;6335754;22;20452;-40
2023/08/16 05:09:01;;;;;;;4.90;4.50;;;21.10;34.80;;;;;;6336445;22;20387;-40
2023/08/16 05:11:27;;;;;;;5.00;4.60;;;21.20;27.10;;;;;;6335565;22;20378;-42
2023/08/16 05:13:53;;;;;;;5.00;4.17;;;21.20;22.00;;;;;;6332847;22;20738;-40
2023/08/16 05:16:18;;;;;;;4.60;4.20;;;21.30;1.00;;;;;;6335396;22;20140;-40
2023/08/16 05:18:44;;;;;;;7.03;4.90;;;21.40;1.00;;;;;;6336316;22;20158;-40
2023/08/16 05:21:09;;;;;;;4.50;4.10;;;21.30;1.00;;;;;;6337308;22;20230;-38
2023/08/16 05:23:35;;;;;;;4.80;4.40;;;21.30;1.00;;;;;;6337448;22;20162;-40
2023/08/16 05:26:01;;;;;;;3.93;3.63;;;21.30;1.00;;;;;;6339065;22;20166;-38
2023/08/16 05:28:26;;;;;;;4.87;4.47;;;21.30;1.00;;;;;;6336604;22;20177;-40
2023/08/16 05:30:52;;;;;;;4.70;4.30;;;21.30;1.00;;;;;;6337852;22;20127;-37
2023/08/16 05:33:18;;;;;;;7.60;4.40;;;21.30;30.80;;;;;;6338473;22;20208;-37
2023/08/16 05:35:44;;;;;;;5.10;4.13;;;21.30;22.80;;;;;;6336629;22;20147;-40
2023/08/16 05:38:09;;;;;;;5.33;4.87;;;21.40;32.30;;;;;;6336146;22;20412;-40
2023/08/16 05:40:35;;;;;;;5.20;4.70;;;21.50;1.00;;;;;;6335560;22;20499;-39
2023/08/16 05:43:01;;;;;;;4.60;4.00;;;21.50;1.00;;;;;;6334880;22;20151;-42
2023/08/16 05:45:28;;;;;;;5.23;4.80;;;21.60;1.00;;;;;;6336063;22;20500;-40
2023/08/16 05:47:54;;;;;;;4.43;4.03;;;21.70;1.00;;;;;;6337483;22;20191;-40
2023/08/16 05:50:21;;;;;;;6.50;4.77;;;21.70;1.00;;;;;;6336523;22;20403;-41
2023/08/16 05:52:46;;;;;;;4.97;4.27;;;21.80;1.00;;;;;;6337943;22;20390;-40
2023/08/16 05:55:12;;;;;;;4.23;3.93;;;21.90;1.00;;;;;;6337027;22;20628;-40
2023/08/16 05:57:38;;;;;;;5.57;4.60;;;22.00;1.00;;;;;;6337878;22;20616;-38
2023/08/16 06:00:04;;;;;;;3.93;3.63;;;22.20;1.00;;;;;;6337804;22;20155;-40
2023/08/16 06:02:30;;;;;;;6.30;4.40;;;22.40;1.00;;;;;;6337712;22;20155;-39
2023/08/16 06:04:58;;;;;;;5.40;4.83;;;22.60;99.90;;;;;;6337442;22;20396;-41
2023/08/16 06:07:25;;;;;;;4.80;4.40;;;22.70;99.90;;;;;;6338158;22;20238;-40
2023/08/16 06:09:51;;;;;;;5.63;5.13;;;22.70;99.90;;;;;;6337988;22;20765;-38
2023/08/16 06:12:17;;;;;;;4.80;4.33;;;22.70;99.90;;;;;;6338635;22;20381;-39
2023/08/16 06:14:43;;;;;;;5.10;4.63;;;22.60;99.90;;;;;;6336911;22;20782;-40
2023/08/16 06:17:09;;;;;;;5.47;4.97;;;22.60;99.90;;;;;;6336625;22;20392;-40
2023/08/16 06:19:34;;;;;;;4.87;4.40;;;22.60;99.90;;;;;;6334931;22;20357;-39
2023/08/16 06:22:00;;;;;;;5.40;4.93;;;22.60;99.90;;;;;;6334918;22;20208;-40
2023/08/16 06:24:26;;;;;;;5.90;4.33;;;22.60;99.90;;;;;;6336793;22;20422;-38
2023/08/16 06:26:51;;;;;;;7.90;5.47;;;22.60;99.90;;;;;;6337253;22;20248;-39
2023/08/16 06:29:17;;;;;;;7.00;6.40;;;22.60;99.90;;;;;;6338850;22;20147;-40
2023/08/16 06:31:42;;;;;;;7.23;5.73;;;22.60;99.90;;;;;;6338186;22;20158;-40
2023/08/16 06:34:08;;;;;;;5.70;5.10;;;22.60;99.90;;;;;;6336926;22;20394;-39
2023/08/16 06:36:34;;;;;;;5.67;5.20;;;22.60;99.90;;;;;;6338915;22;20151;-38
2023/08/16 06:38:59;;;;;;;5.57;5.10;;;22.50;99.90;;;;;;6338281;22;20151;-41
2023/08/16 06:41:25;;;;;;;5.13;4.73;;;22.50;1.00;;;;;;6336940;22;20151;-40
2023/08/16 06:43:51;;;;;;;5.10;4.70;;;22.50;99.90;;;;;;6335695;22;20226;-40
2023/08/16 06:46:16;;;;;;;6.90;6.10;;;22.70;99.90;;;;;;6335498;22;20468;-40
2023/08/16 06:48:42;;;;;;;6.70;6.20;;;22.80;99.90;;;;;;6338595;22;20148;-40
2023/08/16 06:51:08;;;;;;;6.23;5.70;;;22.90;99.90;;;;;;6337810;22;20155;-43
2023/08/16 06:53:33;;;;;;;6.47;5.97;;;23.00;99.90;;;;;;6335159;22;20212;-40
2023/08/16 06:55:59;;;;;;;6.93;6.33;;;23.10;99.90;;;;;;6336223;22;20148;-38
2023/08/16 06:58:25;;;;;;;7.00;6.40;;;23.20;99.90;;;;;;6337861;22;20131;-39
2023/08/16 07:00:51;;;;;;;6.90;6.20;;;23.30;1.00;;;;;;6338231;22;20526;-38
2023/08/16 07:03:17;;;;;;;6.63;5.77;;;23.30;1.00;;;;;;6310363;22;20409;-41
2023/08/16 07:05:43;;;;;;;5.90;5.40;;;23.40;1.00;;;;;;6337077;22;20155;-40
2023/08/16 07:08:09;;;;;;;6.80;6.10;;;23.60;1.00;;;;;;6335638;22;20537;-44
2023/08/16 07:10:35;;;;;;;6.93;5.47;;;23.80;1.00;;;;;;6336036;22;20358;-41
2023/08/16 07:13:01;;;;;;;7.30;6.60;;;24.00;99.90;;;;;;6335237;22;20342;-39
2023/08/16 07:15:27;;;;;;;7.10;6.20;;;24.20;1.00;;;;;;6336593;22;20216;-39
2023/08/16 07:17:52;;;;;;;5.93;5.50;;;24.30;1.00;;;;;;6334942;22;20392;-40
2023/08/16 07:20:18;;;;;;;6.30;5.70;;;24.40;99.90;;;;;;6335189;22;20177;-40
2023/08/16 07:22:44;;;;;;;8.30;5.43;;;24.50;8.60;;;;;;6336838;22;20387;-42
2023/08/16 07:25:12;;;;;;;6.63;5.53;;;24.50;72.80;;;;;;6336011;22;20369;-41
2023/08/16 07:27:38;;;;;;;5.80;5.30;;;24.60;8.20;;;;;;6337181;22;20210;-39
2023/08/16 07:30:04;;;;;;;6.43;5.93;;;24.70;1.00;;;;;;6336501;22;20381;-41
2023/08/16 07:32:30;;;;;;;6.90;6.40;;;24.90;99.90;;;;;;6336858;22;20679;-40
2023/08/16 07:34:57;;;;;;;6.43;5.80;;;25.10;43.90;;;;;;6334958;22;20373;-41
2023/08/16 07:37:23;;;;;;;6.00;5.50;;;25.30;99.90;;;;;;6309120;22;20619;-39
2023/08/16 07:39:48;;;;;;;7.57;6.63;;;25.40;99.90;;;;;;6334445;22;20730;-41
2023/08/16 07:42:17;;;;;;;6.70;6.17;;;25.60;99.90;;;;;;6335359;22;20238;-38
2023/08/16 07:44:43;;;;;;;6.70;6.20;;;25.60;1.00;;;;;;6307744;22;20196;-39
2023/08/16 07:47:11;;;;;;;8.10;6.43;;;25.60;1.00;;;;;;6307157;22;20523;-40
2023/08/16 07:49:36;;;;;;;7.10;6.40;;;25.60;1.00;;;;;;6335567;22;20738;-41
2023/08/16 07:52:02;;;;;;;7.50;6.77;;;25.80;1.00;;;;;;6336980;22;20392;-40
2023/08/16 07:54:28;;;;;;;7.00;6.50;;;25.90;99.90;;;;;;6337152;22;20147;-41
2023/08/16 07:56:53;;;;;;;6.97;6.27;;;25.90;99.90;;;;;;6336184;22;20198;-41
2023/08/16 07:59:19;;;;;;;7.00;5.97;;;26.10;99.90;;;;;;6335540;22;20162;-39
2023/08/16 08:01:45;;;;;;;11.73;7.90;;;26.40;1.00;;;;;;6335070;22;21179;-41
2023/08/16 08:04:11;;;;;;;8.10;7.50;;;26.80;99.90;;;;;;6335582;22;20146;-39
2023/08/16 08:06:36;;;;;;;9.57;6.37;;;27.10;99.90;;;;;;6336021;22;20266;-40
2023/08/16 08:09:03;;;;;;;6.90;6.40;;;27.00;99.90;;;;;;6337068;22;20147;-43
2023/08/16 08:11:28;;;;;;;6.73;6.23;;;27.30;99.90;;;;;;6338449;22;20532;-42
2023/08/16 08:13:54;;;;;;;8.03;7.30;;;27.70;99.90;;;;;;6337778;22;20490;-40
2023/08/16 08:16:20;;;;;;;8.27;7.67;;;27.90;1.00;;;;;;6335458;22;20132;-41
2023/08/16 08:18:46;;;;;;;8.03;7.33;;;27.90;1.00;;;;;;6340544;22;20151;-41
2023/08/16 08:21:11;;;;;;;9.23;6.97;;;27.90;1.00;;;;;;6340580;22;20149;-42
2023/08/16 08:23:37;;;;;;;7.30;6.70;;;28.00;1.00;;;;;;6339440;22;20579;-39
2023/08/16 08:26:03;;;;;;;8.00;7.30;;;28.00;99.90;;;;;;6340332;22;20147;-42
2023/08/16 08:28:29;;;;;;;7.50;6.90;;;28.10;99.90;;;;;;6340156;22;20226;-39
2023/08/16 08:30:54;;;;;;;7.20;6.60;;;28.20;99.90;;;;;;6338314;22;20637;-38
2023/08/16 08:33:20;;;;;;;7.57;6.97;;;28.50;99.90;;;;;;6339833;22;20226;-39
2023/08/16 08:35:46;;;;;;;7.00;6.50;;;28.50;99.90;;;;;;6339657;22;20158;-38
2023/08/16 08:38:12;;;;;;;7.60;6.80;;;28.70;99.90;;;;;;6339292;22;20438;-40
2023/08/16 08:40:38;;;;;;;7.90;7.20;;;29.00;99.90;;;;;;6337298;22;20359;-39
2023/08/16 08:43:06;;;;;;;8.10;7.37;;;29.50;99.90;;;;;;6337886;22;20221;-39
2023/08/16 08:45:32;;;;;;;7.00;6.40;;;29.70;99.90;;;;;;6338864;22;20216;-39
2023/08/16 08:47:58;;;;;;;8.10;7.30;;;29.90;99.90;;;;;;6338450;22;20694;-38
2023/08/16 08:50:24;;;;;;;8.83;6.70;;;30.00;71.80;;;;;;6338154;22;20405;-39
2023/08/16 08:52:51;;;;;;;6.80;6.30;;;30.20;75.00;;;;;;6339178;22;20355;-40
2023/08/16 08:55:18;;;;;;;8.50;7.70;;;30.40;53.20;;;;;;6338056;22;20503;-38
2023/08/16 08:57:50;;;;;;;7.93;7.23;;;30.50;28.10;;;;;;6338440;22;20404;-41
2023/08/16 09:00:20;;;;;;;7.73;7.03;;;30.80;11.30;;;;;;6336186;22;20360;-37
2023/08/16 09:02:49;;;;;;;8.90;7.40;;;30.80;1.00;;;;;;6336608;22;20470;-38
2023/08/16 09:05:15;;;;;;;8.13;7.43;;;30.70;1.00;;;;;;6335878;22;20381;-39
2023/08/16 09:07:42;;;;;;;7.77;6.97;;;30.40;1.00;;;;;;6334679;22;20401;-40
2023/08/16 09:10:09;;;;;;;8.00;7.40;;;30.30;1.00;;;;;;6336735;22;20346;-40
2023/08/16 09:12:36;;;;;;;8.03;7.23;;;30.40;1.00;;;;;;6335481;22;20818;-38
2023/08/16 09:15:02;;;;;;;7.70;7.10;;;30.80;8.20;;;;;;6333386;22;20429;-39
2023/08/16 09:17:28;;;;;;;7.33;6.70;;;31.40;1.00;;;;;;6339726;22;20370;-37
2023/08/16 09:19:54;;;;;;;8.23;7.57;;;31.60;1.00;;;;;;6339385;22;20582;-39
2023/08/16 09:22:20;;;;;;;7.60;7.00;;;31.60;1.00;;;;;;6339995;22;20686;-39
2023/08/16 09:24:46;;;;;;;8.50;7.60;;;31.30;1.00;;;;;;6339237;22;20182;-39
2023/08/16 09:27:11;;;;;;;8.53;7.80;;;31.30;1.00;;;;;;6334246;22;20433;-39
2023/08/16 09:29:39;;;;;;;10.60;7.47;;;31.10;1.00;;;;;;6335497;22;20159;-38
2023/08/16 09:32:07;;;;;;;8.50;7.80;;;30.70;1.00;;;;;;6339031;22;20170;-37
2023/08/16 09:34:32;;;;;;;8.00;7.33;;;30.70;1.00;;;;;;6339857;22;20680;-38
2023/08/16 09:37:00;;;;;;;7.90;7.20;;;30.70;1.00;;;;;;6338269;22;20453;-40
2023/08/16 09:39:27;;;;;;;7.83;7.13;;;31.00;1.00;;;;;;6338171;22;20146;-41
2023/08/16 09:41:52;;;;;;;7.97;7.30;;;31.30;1.00;;;;;;6339866;22;20367;-40
2023/08/16 09:44:18;;;;;;;8.27;7.47;;;31.80;1.00;;;;;;6338211;22;20779;-40
2023/08/16 09:46:45;;;;;;;8.60;7.80;;;32.30;1.00;;;;;;6338328;22;20198;-38
2023/08/16 09:49:11;;;;;;;8.10;7.50;;;32.50;1.00;;;;;;6336899;22;20845;-38
2023/08/16 09:51:38;;;;;;;8.40;7.70;;;32.60;1.00;;;;;;6336367;22;20360;-40
2023/08/16 09:54:13;;;;;;;8.23;7.60;;;32.80;1.00;;;;;;6337153;22;20388;-39
2023/08/16 09:56:40;;;;;;;7.93;7.33;;;32.60;1.00;;;;;;6338360;22;20629;-39
2023/08/16 09:59:09;;;;;;;8.20;7.50;;;33.00;1.00;;;;;;6335705;22;20480;-39
2023/08/16 10:01:35;;;;;;;7.83;7.20;;;33.30;1.00;;;;;;6335081;22;20567;-38
2023/08/16 10:04:02;;;;;;;8.07;7.37;;;33.90;1.00;;;;;;6336942;22;20365;-39
2023/08/16 10:06:31;;;;;;;8.33;7.53;;;34.20;1.00;;;;;;6335287;22;20417;-38
2023/08/16 10:08:57;;;;;;;7.83;7.20;;;34.10;1.00;;;;;;6334046;22;20410;-39
2023/08/16 10:11:23;;;;;;;9.07;7.40;;;34.00;1.00;;;;;;6335375;22;20431;-40
2023/08/16 10:13:49;;;;;;;8.23;7.47;;;33.70;1.00;;;;;;6334434;22;20420;-38
2023/08/16 10:16:15;;;;;;;8.33;7.73;;;33.20;1.00;;;;;;6333517;22;20753;-39
2023/08/16 10:18:42;;;;;;;8.60;7.77;;;33.10;1.00;;;;;;6332462;22;20373;-40
2023/08/16 10:21:11;;;;;;;8.97;8.27;;;33.20;1.00;;;;;;6330991;22;20395;-41
2023/08/16 10:23:38;;;;;;;8.13;7.33;;;33.60;1.00;;;;;;6334917;22;20784;-42
2023/08/16 10:26:04;;;;;;;8.07;7.33;;;34.10;1.00;;;;;;6334819;22;20356;-40
2023/08/16 10:28:31;;;;;;;8.73;7.93;;;34.60;1.00;;;;;;6334978;22;20400;-39
2023/08/16 10:30:57;;;;;;;7.90;7.20;;;35.00;1.00;;;;;;6332730;22;20336;-39
2023/08/16 10:33:33;;;;;;;8.40;7.80;;;35.40;1.00;;;;;;6334324;22;20443;-40
2023/08/16 10:36:00;;;;;;;8.77;8.03;;;35.10;1.00;;;;;;6335371;22;20375;-39
2023/08/16 10:38:41;;;;;;;7.97;7.37;;;34.70;1.00;;;;;;6335443;22;20386;-39
2023/08/16 10:41:15;;;;;;;8.40;7.70;;;34.70;1.00;;;;;;6334261;22;20649;-42
2023/08/16 10:43:49;;;;;;;8.70;8.00;;;35.30;1.00;;;;;;6335626;22;20585;-40
2023/08/16 10:46:28;;;;;;;8.00;7.40;;;35.90;1.00;;;;;;6337595;22;20354;-40
2023/08/16 10:48:59;;;;;;;8.30;7.60;;;36.40;1.00;;;;;;6332389;22;20332;-39
2023/08/16 10:51:25;;;;;;;8.87;8.07;;;36.50;1.00;;;;;;6334683;22;20462;-38
2023/08/16 10:53:50;;;;;;;7.97;7.20;;;37.00;1.00;;;;;;6336003;22;20381;-38
2023/08/16 10:56:19;;;;;;;7.73;7.13;;;37.20;1.00;;;;;;6335521;22;20704;-37
2023/08/16 10:58:51;;;;;;;8.43;7.60;;;37.60;1.00;;;;;;6331812;22;20206;-41
2023/08/16 11:01:18;;;;;;;8.30;7.70;;;37.80;1.00;;;;;;6329605;22;20333;-40
2023/08/16 11:03:44;;;;;;;8.80;8.10;;;37.90;1.00;;;;;;6330982;22;20707;-38
2023/08/16 11:06:12;;;;;;;8.37;7.53;;;37.60;1.00;;;;;;6332486;22;20796;-38
2023/08/16 11:08:41;;;;;;;7.43;6.83;;;37.50;1.00;;;;;;6332600;22;20691;-38
2023/08/16 11:11:07;;;;;;;7.73;7.13;;;37.80;1.00;;;;;;6333759;22;20438;-39
2023/08/16 11:13:33;;;;;;;10.80;7.53;;;38.10;1.00;;;;;;6333431;22;20507;-39
2023/08/16 11:15:59;;;;;;;7.40;6.80;;;38.10;1.00;;;;;;6332562;22;20197;-37
2023/08/16 11:18:29;;;;;;;8.07;7.30;;;38.00;1.00;;;;;;6331409;22;20171;-40
2023/08/16 11:20:55;;;;;;;8.07;7.37;;;38.20;1.00;;;;;;6331175;22;20403;-38
2023/08/16 11:23:21;;;;;;;8.80;8.03;;;37.60;1.00;;;;;;6333608;22;21081;-38
2023/08/16 11:25:47;;;;;;;7.93;7.33;;;36.70;1.00;;;;;;6333322;22;20302;-39
2023/08/16 11:28:19;;;;;;;9.00;8.10;;;35.90;1.00;;;;;;6333810;22;20613;-38
2023/08/16 11:30:44;;;;;;;8.70;8.10;;;35.10;1.00;;;;;;6335175;22;20144;-38
2023/08/16 11:33:16;;;;;;;9.13;8.33;;;34.90;1.00;;;;;;6333170;22;20360;-37
2023/08/16 11:35:42;;;;;;;7.70;7.10;;;34.80;1.00;;;;;;6334851;22;20170;-40
2023/08/16 11:38:09;;;;;;;7.37;6.83;;;34.70;1.00;;;;;;6336297;22;20666;-38
2023/08/16 11:40:38;;;;;;;7.57;7.00;;;35.00;1.00;;;;;;6335001;22;20233;-38
2023/08/16 11:43:04;;;;;;;8.13;7.43;;;35.60;1.00;;;;;;6335699;22;20455;-38
2023/08/16 11:45:30;;;;;;;8.20;7.40;;;36.20;1.00;;;;;;6334380;22;20450;-39
2023/08/16 11:47:55;;;;;;;7.60;6.97;;;36.40;1.00;;;;;;6333642;22;20701;-38
2023/08/16 11:50:23;;;;;;;7.03;6.33;;;36.60;1.00;;;;;;6332612;22;20182;-39
2023/08/16 11:52:59;;;;;;;8.90;8.10;;;36.70;1.00;;;;;;6331195;22;20215;-39
2023/08/16 11:55:29;;;;;;;7.63;7.03;;;36.80;1.00;;;;;;6334243;22;20345;-38
2023/08/16 11:58:05;;;;;;;7.50;6.80;;;37.40;1.00;;;;;;6333736;22;20564;-38
2023/08/16 12:00:32;;;;;;;7.10;6.60;;;38.00;1.00;;;;;;6336936;22;20472;-38
2023/08/16 12:03:01;;;;;;;7.23;6.60;;;37.80;1.00;;;;;;6334134;22;20417;-40
2023/08/16 12:05:36;;;;;;;7.10;6.50;;;38.00;1.00;;;;;;6335760;22;20806;-37
2023/08/16 12:08:08;;;;;;;9.00;7.00;;;36.80;1.00;;;;;;6334202;22;20727;-36
2023/08/16 12:10:35;;;;;;;7.43;6.83;;;36.90;1.00;;;;;;6333494;22;20434;-37
2023/08/16 12:13:14;;;;;;;7.60;7.00;;;37.20;1.00;;;;;;6334301;22;20798;-38
2023/08/16 12:15:41;;;;;;;8.00;7.43;;;37.80;1.00;;;;;;6334496;22;20458;-40
2023/08/16 12:18:06;;;;;;;8.70;7.90;;;37.80;1.00;;;;;;6337501;22;20823;-36
2023/08/16 12:20:32;;;;;;;7.67;7.10;;;37.70;1.00;;;;;;6334829;22;20476;-36
2023/08/16 12:22:58;;;;;;;8.20;7.43;;;38.10;1.00;;;;;;6331801;22;20151;-38
2023/08/16 12:25:24;;;;;;;8.10;7.40;;;38.40;1.00;;;;;;6334075;22;20161;-38
2023/08/16 12:27:50;;;;;;;6.90;6.30;;;39.00;1.00;;;;;;6334346;22;20414;-37
2023/08/16 12:30:16;;;;;;;8.43;7.47;;;39.90;1.00;;;;;;6334454;22;20384;-37
2023/08/16 12:32:42;;;;;;;6.80;6.30;;;40.30;1.00;;;;;;6334640;22;20412;-38
2023/08/16 12:35:08;;;;;;;7.27;6.77;;;39.90;1.00;;;;;;6335448;22;20381;-37
2023/08/16 12:37:34;;;;;;;8.37;7.57;;;39.40;1.00;;;;;;6335355;22;20372;-38
2023/08/16 12:40:00;;;;;;;6.93;6.43;;;38.60;1.00;;;;;;6334530;22;20405;-41
2023/08/16 12:42:26;;;;;;;7.30;6.73;;;38.60;1.00;;;;;;6335769;22;20385;-40
2023/08/16 12:44:52;;;;;;;9.93;7.70;;;39.10;1.00;;;;;;6336686;22;20516;-39
2023/08/16 12:47:18;;;;;;;7.00;6.30;;;39.60;1.00;;;;;;6335767;22;20210;-38